createdAt,value
2018-09-13T00:00:25.156Z,24.79
2018-09-13T00:02:52.160Z,24.77
2018-09-13T00:05:19.558Z,24.73
2018-09-13T00:07:47.024Z,24.67
2018-09-13T00:10:14.433Z,24.63
2018-09-13T00:12:41.886Z,24.56
2018-09-13T00:15:09.357Z,24.46
2018-09-13T00:17:36.870Z,24.37
2018-09-13T00:20:04.406Z,24.25
2018-09-13T00:22:31.894Z,24.22
2018-09-13T00:24:59.407Z,24.20
2018-09-13T00:27:26.865Z,24.21
2018-09-13T00:29:54.317Z,24.22
2018-09-13T00:32:21.758Z,24.24
2018-09-13T00:34:49.200Z,24.15
2018-09-13T00:37:16.644Z,24.09
2018-09-13T00:39:44.392Z,24.08
2018-09-13T00:42:11.996Z,24.11
2018-09-13T00:44:39.480Z,24.11
2018-09-13T00:47:06.910Z,24.07
2018-09-13T00:49:34.388Z,24.06
2018-09-13T00:52:01.883Z,24.06
2018-09-13T00:54:29.364Z,24.02
2018-09-13T00:56:56.860Z,23.96
2018-09-13T00:59:24.272Z,23.91
2018-09-13T01:01:51.700Z,23.90
2018-09-13T01:04:19.145Z,23.94
2018-09-13T01:06:46.634Z,24.01
2018-09-13T01:09:14.105Z,24.03
2018-09-13T01:11:41.557Z,24.01
2018-09-13T01:14:09.088Z,23.94
2018-09-13T01:16:37.104Z,23.88
2018-09-13T01:19:04.584Z,23.88
2018-09-13T01:21:32.047Z,23.86
2018-09-13T01:23:59.532Z,23.84
2018-09-13T01:26:26.932Z,23.81
2018-09-13T01:28:54.357Z,23.78
2018-09-13T01:31:21.804Z,23.76
2018-09-13T01:33:49.231Z,23.77
2018-09-13T01:36:16.726Z,23.78
2018-09-13T01:38:44.209Z,23.76
2018-09-13T01:41:11.652Z,23.76
2018-09-13T01:43:39.115Z,23.74
2018-09-13T01:46:06.557Z,23.72
2018-09-13T01:48:34.088Z,23.70
2018-09-13T01:51:01.571Z,23.69
2018-09-13T01:53:28.975Z,23.66
2018-09-13T01:55:56.724Z,23.62
2018-09-13T01:58:24.183Z,23.47
2018-09-13T02:00:51.744Z,23.43
2018-09-13T02:03:19.187Z,23.45
2018-09-13T02:05:46.656Z,23.43
2018-09-13T02:08:14.064Z,23.35
2018-09-13T02:10:41.528Z,23.28
2018-09-13T02:13:09.020Z,23.28
2018-09-13T02:15:36.447Z,23.31
2018-09-13T02:18:04.179Z,23.34
2018-09-13T02:20:31.627Z,23.17
2018-09-13T02:22:59.184Z,22.94
2018-09-13T02:25:26.237Z,22.82
2018-09-13T02:27:53.234Z,22.83
2018-09-13T02:30:20.192Z,22.88
2018-09-13T02:32:47.237Z,22.89
2018-09-13T02:35:14.227Z,22.85
2018-09-13T02:37:41.273Z,22.72
2018-09-13T02:40:08.651Z,22.52
2018-09-13T02:42:36.159Z,22.42
2018-09-13T02:45:03.799Z,22.45
2018-09-13T02:47:31.276Z,22.46
2018-09-13T02:49:58.730Z,22.40
2018-09-13T02:52:26.197Z,22.42
2018-09-13T02:54:53.702Z,22.49
2018-09-13T02:57:21.255Z,22.53
2018-09-13T02:59:48.766Z,22.52
2018-09-13T03:02:16.211Z,22.48
2018-09-13T03:04:43.614Z,22.41
2018-09-13T03:07:11.064Z,22.42
2018-09-13T03:09:38.611Z,22.41
2018-09-13T03:12:06.010Z,22.42
2018-09-13T03:14:33.472Z,22.42
2018-09-13T03:17:00.936Z,22.40
2018-09-13T03:19:28.416Z,22.31
2018-09-13T03:21:55.812Z,22.16
2018-09-13T03:24:23.292Z,22.12
2018-09-13T03:26:50.736Z,22.13
2018-09-13T03:29:18.181Z,22.19
2018-09-13T03:31:45.686Z,22.20
2018-09-13T03:34:13.136Z,22.18
2018-09-13T03:36:40.816Z,22.15
2018-09-13T03:39:08.303Z,22.07
2018-09-13T03:41:35.770Z,22.07
2018-09-13T03:44:03.239Z,21.92
2018-09-13T03:46:30.661Z,21.80
2018-09-13T03:48:58.093Z,21.77
2018-09-13T03:51:25.581Z,21.80
2018-09-13T03:53:53.041Z,21.77
2018-09-13T03:56:20.573Z,21.66
2018-09-13T03:58:48.236Z,21.48
2018-09-13T04:01:15.867Z,21.41
2018-09-13T04:03:43.297Z,21.52
2018-09-13T04:06:10.774Z,21.64
2018-09-13T04:08:38.228Z,21.71
2018-09-13T04:11:05.747Z,21.76
2018-09-13T04:13:33.193Z,21.82
2018-09-13T04:16:00.666Z,21.84
2018-09-13T04:18:28.160Z,21.86
2018-09-13T04:20:55.602Z,21.86
2018-09-13T04:23:23.096Z,21.85
2018-09-13T04:25:50.577Z,21.81
2018-09-13T04:28:18.059Z,21.78
2018-09-13T04:30:45.499Z,21.77
2018-09-13T04:33:12.945Z,21.72
2018-09-13T04:35:40.484Z,21.60
2018-09-13T04:38:07.900Z,21.62
2018-09-13T04:40:35.344Z,21.64
2018-09-13T04:43:02.833Z,21.60
2018-09-13T04:45:30.342Z,21.59
2018-09-13T04:47:57.811Z,21.58
2018-09-13T04:50:25.229Z,21.57
2018-09-13T04:52:52.738Z,21.59
2018-09-13T04:55:20.162Z,21.59
2018-09-13T04:57:47.609Z,21.49
2018-09-13T05:00:15.066Z,21.39
2018-09-13T05:02:42.439Z,21.41
2018-09-13T05:05:09.906Z,21.50
2018-09-13T05:07:37.355Z,21.56
2018-09-13T05:10:04.841Z,21.54
2018-09-13T05:12:32.314Z,21.41
2018-09-13T05:14:59.745Z,21.41
2018-09-13T05:17:27.222Z,21.46
2018-09-13T05:19:54.663Z,21.46
2018-09-13T05:22:22.152Z,21.48
2018-09-13T05:24:49.666Z,21.51
2018-09-13T05:27:17.096Z,21.51
2018-09-13T05:29:44.540Z,21.57
2018-09-13T05:32:12.036Z,21.56
2018-09-13T05:34:39.460Z,21.45
2018-09-13T05:37:06.891Z,21.43
2018-09-13T05:39:34.352Z,21.53
2018-09-13T05:42:01.811Z,21.67
2018-09-13T05:44:29.284Z,21.83
2018-09-13T05:46:56.703Z,21.99
2018-09-13T05:49:24.144Z,22.23
2018-09-13T05:51:52.586Z,22.37
2018-09-13T05:54:20.011Z,22.29
2018-09-13T05:56:47.492Z,22.49
2018-09-13T05:59:14.977Z,22.94
2018-09-13T06:01:42.486Z,23.35
2018-09-13T06:04:10.400Z,23.77
2018-09-13T06:06:38.810Z,24.15
2018-09-13T06:09:06.288Z,24.32
2018-09-13T06:11:33.834Z,24.50
2018-09-13T06:14:01.275Z,24.72
2018-09-13T06:16:28.776Z,25.01
2018-09-13T06:18:56.463Z,24.61
2018-09-13T06:21:24.042Z,24.10
2018-09-13T06:23:51.554Z,23.67
2018-09-13T06:26:19.004Z,23.37
2018-09-13T06:28:46.565Z,23.22
2018-09-13T06:31:14.019Z,23.07
2018-09-13T06:33:41.621Z,23.02
2018-09-13T06:36:09.068Z,22.97
2018-09-13T06:38:36.657Z,22.84
2018-09-13T06:41:04.245Z,22.70
2018-09-13T06:43:31.697Z,22.85
2018-09-13T06:45:59.207Z,23.20
2018-09-13T06:48:26.714Z,23.59
2018-09-13T06:50:54.151Z,23.81
2018-09-13T06:53:21.642Z,23.84
2018-09-13T06:55:49.120Z,23.68
2018-09-13T06:58:16.575Z,23.50
2018-09-13T07:00:44.053Z,23.43
2018-09-13T07:03:12.831Z,23.33
2018-09-13T07:05:40.309Z,23.40
2018-09-13T07:08:07.975Z,23.30
2018-09-13T07:10:35.417Z,23.45
2018-09-13T07:13:02.950Z,23.58
2018-09-13T07:15:30.399Z,23.98
2018-09-13T07:17:57.837Z,25.05
2018-09-13T07:20:25.377Z,26.15
2018-09-13T07:22:53.740Z,26.93
2018-09-13T07:25:21.259Z,27.64
2018-09-13T07:27:48.744Z,27.67
2018-09-13T07:30:16.292Z,28.15
2018-09-13T07:32:43.842Z,28.06
2018-09-13T07:35:12.259Z,28.07
2018-09-13T07:37:40.818Z,28.23
2018-09-13T07:40:08.389Z,28.60
2018-09-13T07:42:36.733Z,29.23
2018-09-13T07:45:03.883Z,29.35
2018-09-13T07:47:30.925Z,29.53
2018-09-13T07:49:58.022Z,30.24
2018-09-13T07:52:25.462Z,31.01
2018-09-13T07:54:52.989Z,31.71
2018-09-13T07:57:20.469Z,32.02
2018-09-13T07:59:48.217Z,32.43
2018-09-13T08:02:15.761Z,32.54
2018-09-13T08:04:43.255Z,32.39
2018-09-13T08:07:10.246Z,32.75
2018-09-13T08:09:37.716Z,33.15
2018-09-13T08:12:06.083Z,33.41
2018-09-13T08:14:32.957Z,33.39
2018-09-13T08:16:59.945Z,33.65
2018-09-13T08:19:27.434Z,34.11
2018-09-13T08:21:55.496Z,34.14
2018-09-13T08:24:22.472Z,34.06
2018-09-13T08:26:49.535Z,34.09
2018-09-13T08:29:17.075Z,33.76
2018-09-13T08:31:44.060Z,34.00
2018-09-13T08:34:11.524Z,34.17
2018-09-13T08:36:39.043Z,34.41
2018-09-13T08:39:07.785Z,34.35
2018-09-13T08:41:35.436Z,33.38
2018-09-13T08:44:02.519Z,32.97
2018-09-13T08:46:29.462Z,32.78
2018-09-13T08:48:56.422Z,33.27
2018-09-13T08:51:23.487Z,33.74
2018-09-13T08:53:50.890Z,34.22
2018-09-13T08:56:18.353Z,33.94
2018-09-13T08:58:45.302Z,33.82
2018-09-13T09:01:12.328Z,33.83
2018-09-13T09:03:39.794Z,33.81
2018-09-13T09:06:07.376Z,32.84
2018-09-13T09:08:34.856Z,31.78
2018-09-13T09:11:02.417Z,31.34
2018-09-13T09:13:29.870Z,31.65
2018-09-13T09:15:58.636Z,31.88
2018-09-13T09:18:26.200Z,32.16
2018-09-13T09:20:53.639Z,31.90
2018-09-13T09:23:21.081Z,31.56
2018-09-13T09:25:48.576Z,31.25
2018-09-13T09:28:15.997Z,31.42
2018-09-13T09:30:43.612Z,31.37
2018-09-13T09:33:11.103Z,31.68
2018-09-13T09:35:39.432Z,32.21
2018-09-13T09:38:06.856Z,32.15
2018-09-13T09:40:33.901Z,32.17
2018-09-13T09:43:01.029Z,32.03
2018-09-13T09:45:28.511Z,31.49
2018-09-13T09:47:55.983Z,31.69
2018-09-13T09:50:24.392Z,31.88
2018-09-13T09:52:51.622Z,31.96
2018-09-13T09:55:19.084Z,31.98
2018-09-13T09:57:46.589Z,31.79
2018-09-13T10:00:14.196Z,31.84
2018-09-13T10:02:41.626Z,31.27
2018-09-13T10:05:09.055Z,30.99
2018-09-13T10:07:36.744Z,30.99
2018-09-13T10:10:04.306Z,30.58
2018-09-13T10:12:31.770Z,30.49
2018-09-13T10:14:59.278Z,30.64
2018-09-13T10:20:35.671Z,31.12
2018-09-13T10:26:14.932Z,31.08
2018-09-13T10:28:48.189Z,30.96
2018-09-13T10:34:15.675Z,32.05
2018-09-13T10:36:48.803Z,31.99
2018-09-13T10:42:30.264Z,32.66
2018-09-13T10:47:56.490Z,33.32
2018-09-13T10:50:17.430Z,33.50
2018-09-13T10:52:44.893Z,33.15
2018-09-13T10:55:12.485Z,33.59
2018-09-13T10:57:40.661Z,33.89
2018-09-13T11:00:08.192Z,34.04
2018-09-13T11:02:35.717Z,33.92
2018-09-13T11:05:03.186Z,33.73
2018-09-13T11:07:30.624Z,33.82
2018-09-13T11:09:58.115Z,33.23
2018-09-13T11:12:25.611Z,32.74
2018-09-13T11:14:53.104Z,32.57
2018-09-13T11:17:21.757Z,32.66
2018-09-13T11:19:49.327Z,32.68
2018-09-13T11:22:16.802Z,32.73
2018-09-13T11:24:44.268Z,32.64
2018-09-13T11:27:11.718Z,32.77
2018-09-13T11:29:39.173Z,32.68
2018-09-13T11:32:06.669Z,32.57
2018-09-13T11:34:34.995Z,32.70
2018-09-13T11:37:02.496Z,32.64
2018-09-13T11:39:29.951Z,32.52
2018-09-13T11:41:57.901Z,32.55
2018-09-13T11:44:25.384Z,32.62
2018-09-13T11:46:54.053Z,32.56
2018-09-13T11:49:21.528Z,32.77
2018-09-13T11:51:49.044Z,32.85
2018-09-13T11:54:16.456Z,33.20
2018-09-13T11:56:43.968Z,33.37
2018-09-13T11:59:11.517Z,33.21
2018-09-13T12:01:39.060Z,33.18
2018-09-13T12:04:06.529Z,33.20
2018-09-13T12:06:33.938Z,33.24
2018-09-13T12:09:01.417Z,33.50
2018-09-13T12:11:28.887Z,33.88
2018-09-13T12:13:56.351Z,33.97
2018-09-13T12:16:23.804Z,34.04
2018-09-13T12:18:51.534Z,34.26
2018-09-13T12:21:18.875Z,34.34
2018-09-13T12:23:46.324Z,34.30
2018-09-13T12:26:13.774Z,34.13
2018-09-13T12:28:41.286Z,33.84
2018-09-13T12:31:08.776Z,33.60
2018-09-13T12:33:36.319Z,33.06
2018-09-13T12:36:03.882Z,32.92
2018-09-13T12:38:31.295Z,32.93
2018-09-13T12:40:58.844Z,32.56
2018-09-13T12:43:27.210Z,32.74
2018-09-13T12:45:54.760Z,32.40
2018-09-13T12:48:22.253Z,32.02
2018-09-13T12:50:49.785Z,31.43
2018-09-13T12:53:17.371Z,30.26
2018-09-13T12:55:44.438Z,29.42
2018-09-13T12:58:11.889Z,29.12
2018-09-13T13:00:39.299Z,29.58
2018-09-13T13:03:06.804Z,29.40
2018-09-13T13:05:34.451Z,28.92
2018-09-13T13:08:01.963Z,28.74
2018-09-13T13:10:30.244Z,28.45
2018-09-13T13:12:57.858Z,28.40
2018-09-13T13:15:25.329Z,28.39
2018-09-13T13:17:52.857Z,28.40
2018-09-13T13:20:20.423Z,28.28
2018-09-13T13:22:47.905Z,28.47
2018-09-13T13:25:15.435Z,28.55
2018-09-13T13:27:43.017Z,28.61
2018-09-13T13:30:10.409Z,28.63
2018-09-13T13:32:37.852Z,28.94
2018-09-13T13:35:05.290Z,29.13
2018-09-13T13:37:32.725Z,29.87
2018-09-13T13:40:00.456Z,30.87
2018-09-13T13:42:28.092Z,31.52
2018-09-13T13:44:55.688Z,31.31
2018-09-13T13:47:23.271Z,31.68
2018-09-13T13:49:50.804Z,31.33
2018-09-13T13:52:18.276Z,31.27
2018-09-13T13:54:45.722Z,31.06
2018-09-13T13:57:13.154Z,30.44
2018-09-13T13:59:40.678Z,30.13
2018-09-13T14:02:08.191Z,29.80
2018-09-13T14:04:35.898Z,29.60
2018-09-13T14:07:03.344Z,29.45
2018-09-13T14:09:31.076Z,29.37
2018-09-13T14:11:58.559Z,29.40
2018-09-13T14:14:25.712Z,29.94
2018-09-13T14:16:53.185Z,30.51
2018-09-13T14:19:20.844Z,31.10
2018-09-13T14:21:49.249Z,30.96
2018-09-13T14:24:16.703Z,31.00
2018-09-13T14:26:44.251Z,31.34
2018-09-13T14:29:11.871Z,31.51
2018-09-13T14:31:39.354Z,31.58
2018-09-13T14:34:06.848Z,31.24
2018-09-13T14:36:34.461Z,31.23
2018-09-13T14:39:02.037Z,31.22
2018-09-13T14:41:29.476Z,31.06
2018-09-13T14:43:56.954Z,30.93
2018-09-13T14:46:24.429Z,31.03
2018-09-13T14:48:51.888Z,31.24
2018-09-13T14:51:19.327Z,31.24
2018-09-13T14:53:46.856Z,30.96
2018-09-13T14:56:14.389Z,30.66
2018-09-13T14:58:41.782Z,30.64
2018-09-13T15:01:09.251Z,30.84
2018-09-13T15:03:36.926Z,31.00
2018-09-13T15:06:04.394Z,30.82
2018-09-13T15:08:31.882Z,30.60
2018-09-13T15:10:59.850Z,30.32
2018-09-13T15:13:27.279Z,30.11
2018-09-13T15:15:54.735Z,30.01
2018-09-13T15:18:22.247Z,29.90
2018-09-13T15:20:49.697Z,29.82
2018-09-13T15:23:17.335Z,29.77
2018-09-13T15:25:44.859Z,29.76
2018-09-13T15:28:12.663Z,29.61
2018-09-13T15:30:40.056Z,29.46
2018-09-13T15:33:07.714Z,29.44
2018-09-13T15:35:35.258Z,29.30
2018-09-13T15:38:02.826Z,29.03
2018-09-13T15:40:30.493Z,28.92
2018-09-13T15:42:57.960Z,28.90
2018-09-13T15:45:25.366Z,28.99
2018-09-13T15:47:52.919Z,29.08
2018-09-13T15:50:20.440Z,28.97
2018-09-13T15:52:47.951Z,29.00
2018-09-13T15:55:15.519Z,29.08
2018-09-13T15:57:43.076Z,29.09
2018-09-13T16:00:10.569Z,29.14
2018-09-13T16:02:38.015Z,29.39
2018-09-13T16:05:05.475Z,29.68
2018-09-13T16:07:33.083Z,29.95
2018-09-13T16:10:00.720Z,30.32
2018-09-13T16:12:28.233Z,30.28
2018-09-13T16:14:55.647Z,30.10
2018-09-13T16:17:23.319Z,29.87
2018-09-13T16:19:51.464Z,29.95
2018-09-13T16:22:19.440Z,30.16
2018-09-13T16:24:46.897Z,30.10
2018-09-13T16:27:14.398Z,29.96
2018-09-13T16:29:41.861Z,30.10
2018-09-13T16:32:09.353Z,30.06
2018-09-13T16:34:36.815Z,29.88
2018-09-13T16:37:05.164Z,29.65
2018-09-13T16:42:42.750Z,29.64
2018-09-13T16:45:10.162Z,29.37
2018-09-13T16:50:31.084Z,29.21
2018-09-13T16:52:59.315Z,28.94
2018-09-13T16:55:26.840Z,28.74
2018-09-13T16:57:54.305Z,28.60
2018-09-13T17:00:21.813Z,28.40
2018-09-13T17:02:50.102Z,28.15
2018-09-13T17:05:17.567Z,28.16
2018-09-13T17:07:45.216Z,28.11
2018-09-13T17:10:13.443Z,28.03
2018-09-13T17:12:41.138Z,27.95
2018-09-13T17:15:08.662Z,27.94
2018-09-13T17:17:36.412Z,27.80
2018-09-13T17:20:03.974Z,27.59
2018-09-13T17:22:31.772Z,27.36
2018-09-13T17:24:59.293Z,27.25
2018-09-13T17:27:26.768Z,27.17
2018-09-13T17:29:54.234Z,27.09
2018-09-13T17:32:21.834Z,27.09
2018-09-13T17:34:49.383Z,27.07
2018-09-13T17:37:16.937Z,27.03
2018-09-13T17:39:44.333Z,26.90
2018-09-13T17:42:11.770Z,26.83
2018-09-13T17:44:39.295Z,26.73
2018-09-13T17:47:06.907Z,26.71
2018-09-13T17:49:34.450Z,26.67
2018-09-13T17:52:02.009Z,26.61
2018-09-13T17:54:30.030Z,26.61
2018-09-13T17:56:57.490Z,26.60
2018-09-13T17:59:24.957Z,26.50
2018-09-13T18:01:52.463Z,26.43
2018-09-13T18:04:19.924Z,26.43
2018-09-13T18:06:47.465Z,26.41
2018-09-13T18:09:14.924Z,26.35
2018-09-13T18:11:42.410Z,26.24
2018-09-13T18:14:09.901Z,26.12
2018-09-13T18:16:37.380Z,26.07
2018-09-13T18:19:04.875Z,25.93
2018-09-13T18:21:32.402Z,25.78
2018-09-13T18:24:00.341Z,25.67
2018-09-13T18:26:28.065Z,25.59
2018-09-13T18:28:55.079Z,25.36
2018-09-13T18:31:22.543Z,25.18
2018-09-13T18:33:50.015Z,25.05
2018-09-13T18:36:18.602Z,24.95
2018-09-13T18:38:46.182Z,24.88
2018-09-13T18:41:13.583Z,24.81
2018-09-13T18:43:41.036Z,24.77
2018-09-13T18:46:08.485Z,24.78
2018-09-13T18:48:35.988Z,24.78
2018-09-13T18:51:03.435Z,24.68
2018-09-13T18:53:31.165Z,24.59
2018-09-13T18:55:58.640Z,24.50
2018-09-13T18:58:26.161Z,24.37
2018-09-13T19:00:53.665Z,24.32
2018-09-13T19:03:21.150Z,24.29
2018-09-13T19:05:48.675Z,24.22
2018-09-13T19:08:16.185Z,24.16
2018-09-13T19:10:43.694Z,24.10
2018-09-13T19:13:11.186Z,24.05
2018-09-13T19:15:39.532Z,24.07
2018-09-13T19:18:07.032Z,24.07
2018-09-13T19:20:34.560Z,24.05
2018-09-13T19:23:02.065Z,24.03
2018-09-13T19:25:29.569Z,24.00
2018-09-13T19:27:57.064Z,24.01
2018-09-13T19:30:24.475Z,23.99
2018-09-13T19:32:52.041Z,24.02
2018-09-13T19:35:19.485Z,24.03
2018-09-13T19:37:47.176Z,24.10
2018-09-13T19:40:14.659Z,24.13
2018-09-13T19:42:42.169Z,24.20
2018-09-13T19:45:09.620Z,24.13
2018-09-13T19:47:37.097Z,24.09
2018-09-13T19:50:04.648Z,24.14
2018-09-13T19:52:32.110Z,24.21
2018-09-13T19:54:59.552Z,24.22
2018-09-13T19:57:27.563Z,24.22
2018-09-13T19:59:56.135Z,24.26
2018-09-13T20:02:23.624Z,24.21
2018-09-13T20:04:51.209Z,24.19
2018-09-13T20:07:18.703Z,24.13
2018-09-13T20:09:46.213Z,24.09
2018-09-13T20:12:13.764Z,24.11
2018-09-13T20:14:41.292Z,24.19
2018-09-13T20:17:08.858Z,24.14
2018-09-13T20:19:36.604Z,24.16
2018-09-13T20:22:04.080Z,24.11
2018-09-13T20:24:31.827Z,24.06
2018-09-13T20:26:59.228Z,24.00
2018-09-13T20:29:26.884Z,24.03
2018-09-13T20:31:54.528Z,23.95
2018-09-13T20:34:21.946Z,23.95
2018-09-13T20:36:49.553Z,23.93
2018-09-13T20:39:17.206Z,23.91
2018-09-13T20:41:44.654Z,24.03
2018-09-13T20:44:12.184Z,24.02
2018-09-13T20:46:39.804Z,23.82
2018-09-13T20:49:07.198Z,23.81
2018-09-13T20:51:34.745Z,23.84
2018-09-13T20:54:02.235Z,23.78
2018-09-13T20:56:29.680Z,23.78
2018-09-13T20:58:57.173Z,23.76
2018-09-13T21:01:24.851Z,23.71
2018-09-13T21:03:52.414Z,23.73
2018-09-13T21:06:19.843Z,23.73
2018-09-13T21:08:47.596Z,23.67
2018-09-13T21:11:15.194Z,23.71
2018-09-13T21:13:42.663Z,23.69
2018-09-13T21:16:10.148Z,23.69
2018-09-13T21:18:37.655Z,23.59
2018-09-13T21:21:05.100Z,23.53
2018-09-13T21:23:32.592Z,23.45
2018-09-13T21:26:00.044Z,23.41
2018-09-13T21:28:27.592Z,23.35
2018-09-13T21:30:55.105Z,23.39
2018-09-13T21:33:22.577Z,23.37
2018-09-13T21:35:50.159Z,23.35
2018-09-13T21:38:17.630Z,23.39
2018-09-13T21:40:45.076Z,23.38
2018-09-13T21:43:12.528Z,23.47
2018-09-13T21:45:40.021Z,23.44
2018-09-13T21:48:07.535Z,23.40
2018-09-13T21:50:34.942Z,23.37
2018-09-13T21:53:02.552Z,23.39
2018-09-13T21:55:30.151Z,23.37
2018-09-13T21:57:57.658Z,23.38
2018-09-13T22:00:25.129Z,23.34
2018-09-13T22:02:52.539Z,23.29
2018-09-13T22:05:20.086Z,23.27
2018-09-13T22:07:47.720Z,23.26
2018-09-13T22:10:15.243Z,23.28
2018-09-13T22:12:42.744Z,23.22
2018-09-13T22:15:10.344Z,23.19
2018-09-13T22:17:37.795Z,23.22
2018-09-13T22:20:05.267Z,23.16
2018-09-13T22:22:32.704Z,23.23
2018-09-13T22:25:00.106Z,23.15
2018-09-13T22:27:27.564Z,22.95
2018-09-13T22:29:55.004Z,22.95
2018-09-13T22:32:22.480Z,22.90
2018-09-13T22:34:49.959Z,22.80
2018-09-13T22:37:17.446Z,22.75
2018-09-13T22:39:44.969Z,22.71
2018-09-13T22:42:12.400Z,22.65
2018-09-13T22:44:39.872Z,22.60
2018-09-13T22:47:07.320Z,22.55
2018-09-13T22:49:34.789Z,22.51
2018-09-13T22:52:02.238Z,22.59
2018-09-13T22:54:29.663Z,22.57
2018-09-13T22:56:57.200Z,22.52
2018-09-13T22:59:24.691Z,22.49
2018-09-13T23:01:52.163Z,22.44
2018-09-13T23:04:19.640Z,22.43
2018-09-13T23:06:47.132Z,22.43
2018-09-13T23:09:14.599Z,22.48
2018-09-13T23:11:42.077Z,22.39
2018-09-13T23:14:09.572Z,22.26
2018-09-13T23:16:37.049Z,22.16
2018-09-13T23:19:04.563Z,22.14
2018-09-13T23:21:32.060Z,22.22
2018-09-13T23:23:59.532Z,22.32
2018-09-13T23:26:27.075Z,22.22
2018-09-13T23:28:54.526Z,22.13
